createdAt,value
2018-04-16T00:02:02.070Z,62.51
2018-04-16T00:04:30.413Z,62.39
2018-04-16T00:06:58.749Z,62.44
2018-04-16T00:09:27.293Z,62.62
2018-04-16T00:11:55.687Z,62.28
2018-04-16T00:14:24.022Z,62.23
2018-04-16T00:16:52.361Z,62.23
2018-04-16T00:19:20.695Z,61.99
2018-04-16T00:21:49.044Z,62.01
2018-04-16T00:24:17.464Z,62.16
2018-04-16T00:26:45.802Z,61.69
2018-04-16T00:29:14.133Z,62.25
2018-04-16T00:31:48.022Z,61.95
2018-04-16T00:34:21.880Z,62.39
2018-04-16T00:36:55.841Z,62.35
2018-04-16T00:39:30.177Z,62.37
2018-04-16T00:42:04.002Z,62.33
2018-04-16T00:44:38.049Z,62.90
2018-04-16T00:47:11.993Z,63.54
2018-04-16T00:49:46.092Z,64.01
2018-04-16T00:52:20.005Z,64.85
2018-04-16T00:54:53.877Z,65.74
2018-04-16T00:57:27.690Z,66.50
2018-04-16T01:00:01.917Z,67.33
2018-04-16T01:02:35.825Z,67.50
2018-04-16T01:05:09.894Z,67.71
2018-04-16T01:07:44.362Z,67.52
2018-04-16T01:10:18.269Z,67.57
2018-04-16T01:12:52.187Z,67.64
2018-04-16T01:15:26.086Z,67.74
2018-04-16T01:18:00.087Z,68.07
2018-04-16T01:20:34.003Z,68.03
2018-04-16T01:23:08.107Z,68.56
2018-04-16T01:25:42.164Z,67.96
2018-04-16T01:28:15.952Z,68.51
2018-04-16T01:30:49.928Z,68.56
2018-04-16T01:36:23.060Z,68.95
2018-04-16T01:38:57.052Z,69.08
2018-04-16T01:41:34.294Z,69.19
2018-04-16T01:44:08.326Z,68.96
2018-04-16T01:46:42.239Z,68.97
2018-04-16T01:49:18.327Z,69.76
2018-04-16T01:51:52.232Z,69.61
2018-04-16T01:54:26.273Z,69.90
2018-04-16T01:57:00.369Z,69.49
2018-04-16T01:59:37.865Z,69.57
2018-04-16T02:02:11.902Z,70.07
2018-04-16T02:04:45.920Z,69.87
2018-04-16T02:07:19.841Z,70.36
2018-04-16T02:09:55.881Z,69.69
2018-04-16T02:12:29.967Z,70.05
2018-04-16T02:15:03.923Z,70.59
2018-04-16T02:17:37.862Z,70.19
2018-04-16T02:20:11.758Z,70.46
2018-04-16T02:22:45.688Z,70.18
2018-04-16T02:25:19.434Z,70.60
2018-04-16T02:27:53.315Z,71.01
2018-04-16T02:30:27.316Z,70.28
2018-04-16T02:33:01.158Z,70.88
2018-04-16T02:35:35.158Z,71.07
2018-04-16T02:38:09.069Z,71.03
2018-04-16T02:40:43.149Z,71.04
2018-04-16T02:43:17.152Z,71.88
2018-04-16T02:45:51.231Z,72.09
2018-04-16T02:51:38.376Z,71.78
2018-04-16T02:54:12.308Z,73.21
2018-04-16T02:56:46.321Z,72.27
2018-04-16T02:59:21.133Z,72.95
2018-04-16T03:01:54.995Z,73.83
2018-04-16T03:04:28.747Z,72.91
2018-04-16T03:07:02.795Z,73.32
2018-04-16T03:09:36.826Z,73.34
2018-04-16T03:12:10.842Z,73.05
2018-04-16T03:14:44.760Z,72.89
2018-04-16T03:17:18.838Z,73.05
2018-04-16T03:19:52.842Z,72.85
2018-04-16T03:22:26.849Z,73.42
2018-04-16T03:25:00.713Z,72.40
2018-04-16T03:27:34.640Z,72.20
2018-04-16T03:30:08.565Z,72.23
2018-04-16T03:35:43.765Z,75.40
2018-04-16T03:38:17.585Z,75.16
2018-04-16T03:40:51.610Z,76.03
2018-04-16T03:43:25.625Z,72.54
2018-04-16T03:45:59.641Z,75.90
2018-04-16T03:48:33.606Z,75.58
2018-04-16T03:51:07.673Z,72.40
2018-04-16T03:53:42.385Z,73.65
2018-04-16T03:56:10.686Z,72.44
2018-04-16T03:58:39.074Z,71.62
2018-04-16T04:01:07.383Z,70.58
2018-04-16T04:03:35.723Z,71.08
2018-04-16T04:06:04.036Z,71.92
2018-04-16T04:08:32.486Z,70.31
2018-04-16T04:11:00.860Z,70.96
2018-04-16T04:13:29.180Z,71.50
2018-04-16T04:15:57.500Z,70.48
2018-04-16T04:18:25.805Z,70.52
2018-04-16T04:20:54.178Z,70.81
2018-04-16T04:23:34.333Z,70.85
2018-04-16T04:26:14.616Z,70.77
2018-04-16T04:28:54.980Z,71.38
2018-04-16T04:31:23.348Z,71.18
2018-04-16T04:33:51.660Z,71.05
2018-04-16T04:36:19.983Z,71.90
2018-04-16T04:38:48.296Z,71.58
2018-04-16T04:41:16.644Z,71.75
2018-04-16T04:43:45.048Z,72.32
2018-04-16T04:46:13.378Z,72.94
2018-04-16T04:48:41.775Z,73.30
2018-04-16T04:51:10.090Z,73.65
2018-04-16T04:53:38.443Z,73.72
2018-04-16T04:56:06.778Z,74.42
2018-04-16T04:58:35.089Z,74.84
2018-04-16T05:01:03.446Z,74.75
2018-04-16T05:03:31.810Z,75.07
2018-04-16T05:06:00.115Z,76.28
2018-04-16T05:08:28.432Z,75.06
2018-04-16T05:10:56.781Z,75.70
2018-04-16T05:13:25.159Z,75.98
2018-04-16T05:15:53.522Z,75.91
2018-04-16T05:18:21.910Z,76.47
2018-04-16T05:20:50.218Z,76.41
2018-04-16T05:23:18.556Z,76.78
2018-04-16T05:25:46.932Z,77.03
2018-04-16T05:28:15.312Z,76.93
2018-04-16T05:30:43.637Z,77.32
2018-04-16T05:33:11.968Z,77.41
2018-04-16T05:35:40.345Z,77.77
2018-04-16T05:38:08.679Z,78.58
2018-04-16T05:40:37.021Z,79.27
2018-04-16T05:43:05.368Z,77.84
2018-04-16T05:45:33.677Z,78.69
2018-04-16T05:48:02.071Z,78.57
2018-04-16T05:50:30.520Z,78.81
2018-04-16T05:52:58.848Z,79.45
2018-04-16T05:55:27.160Z,78.59
2018-04-16T05:57:55.496Z,79.47
2018-04-16T06:00:23.818Z,78.69
2018-04-16T06:02:52.196Z,79.65
2018-04-16T06:05:20.511Z,79.59
2018-04-16T06:07:48.845Z,79.82
2018-04-16T06:10:17.156Z,79.69
2018-04-16T06:12:45.469Z,80.08
2018-04-16T06:15:13.795Z,79.78
2018-04-16T06:17:42.105Z,80.07
2018-04-16T06:20:10.437Z,79.48
2018-04-16T06:22:38.744Z,80.11
2018-04-16T06:25:07.089Z,80.68
2018-04-16T06:27:35.407Z,80.42
2018-04-16T06:30:03.785Z,80.25
2018-04-16T06:32:32.119Z,80.26
2018-04-16T06:35:00.500Z,81.37
2018-04-16T06:37:28.806Z,81.10
2018-04-16T06:39:57.150Z,81.19
2018-04-16T06:42:25.520Z,81.71
2018-04-16T06:44:53.930Z,81.00
2018-04-16T06:47:22.287Z,81.42
2018-04-16T06:49:50.629Z,80.52
2018-04-16T06:52:19.049Z,80.90
2018-04-16T06:54:47.757Z,80.25
2018-04-16T06:57:16.107Z,79.66
2018-04-16T06:59:44.528Z,80.52
2018-04-16T07:02:12.869Z,80.34
2018-04-16T07:04:41.189Z,80.51
2018-04-16T07:07:09.535Z,80.28
2018-04-16T07:09:37.871Z,80.54
2018-04-16T07:12:06.212Z,80.07
2018-04-16T07:14:34.538Z,79.57
2018-04-16T07:17:02.876Z,79.87
2018-04-16T07:19:31.195Z,79.93
2018-04-16T07:21:59.533Z,80.01
2018-04-16T07:24:27.858Z,79.97
2018-04-16T07:26:56.204Z,79.53
2018-04-16T07:29:24.612Z,78.98
2018-04-16T07:31:53.036Z,79.97
2018-04-16T07:34:21.375Z,80.00
2018-04-16T07:36:49.723Z,79.84
2018-04-16T07:39:18.041Z,80.45
2018-04-16T07:41:46.438Z,79.81
2018-04-16T07:44:14.758Z,79.34
2018-04-16T07:46:43.376Z,79.20
2018-04-16T07:49:11.700Z,79.07
2018-04-16T07:51:40.012Z,79.31
2018-04-16T07:54:08.368Z,78.72
2018-04-16T07:56:36.700Z,79.60
2018-04-16T07:59:05.094Z,79.82
2018-04-16T08:01:33.451Z,79.48
2018-04-16T08:04:01.789Z,78.73
2018-04-16T08:06:30.109Z,79.68
2018-04-16T08:08:58.453Z,79.36
2018-04-16T08:11:26.775Z,78.58
2018-04-16T08:13:55.133Z,79.05
2018-04-16T08:16:23.456Z,79.24
2018-04-16T08:18:51.788Z,79.19
2018-04-16T08:21:20.110Z,78.73
2018-04-16T08:23:48.445Z,78.29
2018-04-16T08:26:16.819Z,77.65
2018-04-16T08:28:45.149Z,77.30
2018-04-16T08:31:13.465Z,77.96
2018-04-16T08:33:41.803Z,77.96
2018-04-16T08:36:10.124Z,78.85
2018-04-16T08:38:38.480Z,78.78
2018-04-16T08:41:06.800Z,78.00
2018-04-16T08:43:35.144Z,77.57
2018-04-16T08:46:03.533Z,76.49
2018-04-16T08:48:31.888Z,75.70
2018-04-16T08:51:00.202Z,75.78
2018-04-16T08:53:28.520Z,75.35
2018-04-16T08:55:56.860Z,74.97
2018-04-16T08:58:25.221Z,74.95
2018-04-16T09:00:53.549Z,75.31
2018-04-16T09:03:21.870Z,73.33
2018-04-16T09:05:50.209Z,72.97
2018-04-16T09:08:18.521Z,73.89
2018-04-16T09:10:46.861Z,73.78
2018-04-16T09:13:15.164Z,74.99
2018-04-16T09:15:43.557Z,75.52
2018-04-16T09:18:11.881Z,76.68
2018-04-16T09:20:40.201Z,76.03
2018-04-16T09:23:08.581Z,77.54
2018-04-16T09:25:36.975Z,77.19
2018-04-16T09:28:05.336Z,76.63
2018-04-16T09:30:33.717Z,76.64
2018-04-16T09:33:02.048Z,77.19
2018-04-16T09:35:30.472Z,76.71
2018-04-16T09:37:58.815Z,76.38
2018-04-16T09:40:27.130Z,76.88
2018-04-16T09:42:55.521Z,78.22
2018-04-16T09:45:23.888Z,77.62
2018-04-16T09:47:52.261Z,78.23
2018-04-16T09:50:20.706Z,76.79
2018-04-16T09:52:49.016Z,76.08
2018-04-16T09:55:17.367Z,74.96
2018-04-16T09:57:45.670Z,73.76
2018-04-16T10:00:14.049Z,73.59
2018-04-16T10:02:47.965Z,72.58
2018-04-16T10:05:16.341Z,75.11
2018-04-16T10:07:44.657Z,73.33
2018-04-16T10:10:13.000Z,73.26
2018-04-16T10:12:41.379Z,72.66
2018-04-16T10:15:09.796Z,74.84
2018-04-16T10:17:38.470Z,73.39
2018-04-16T10:20:06.828Z,70.92
2018-04-16T10:22:35.160Z,70.25
2018-04-16T10:25:03.620Z,70.37
2018-04-16T10:27:31.946Z,70.67
2018-04-16T10:30:00.355Z,71.11
2018-04-16T10:32:28.748Z,70.01
2018-04-16T10:34:57.022Z,69.48
2018-04-16T10:37:25.358Z,70.28
2018-04-16T10:39:53.685Z,69.54
2018-04-16T10:42:22.013Z,70.98
2018-04-16T10:44:50.324Z,69.75
2018-04-16T10:47:18.665Z,69.51
2018-04-16T10:49:47.125Z,71.32
2018-04-16T10:52:15.444Z,71.41
2018-04-16T10:54:43.800Z,70.77
2018-04-16T10:57:12.132Z,71.29
2018-04-16T10:59:40.576Z,71.69
2018-04-16T11:02:08.910Z,72.31
2018-04-16T11:04:37.224Z,72.71
2018-04-16T11:07:05.905Z,73.79
2018-04-16T11:09:34.285Z,73.38
2018-04-16T11:12:02.614Z,74.25
2018-04-16T11:14:31.045Z,72.09
2018-04-16T11:16:59.357Z,70.94
2018-04-16T11:19:27.749Z,72.88
2018-04-16T11:21:56.070Z,73.08
2018-04-16T11:24:24.453Z,73.08
2018-04-16T11:26:52.828Z,73.19
2018-04-16T11:29:21.166Z,73.41
2018-04-16T11:31:49.580Z,74.66
2018-04-16T11:34:17.976Z,73.90
2018-04-16T11:36:46.294Z,74.97
2018-04-16T11:39:14.629Z,73.56
2018-04-16T11:41:42.954Z,72.65
2018-04-16T11:44:11.290Z,73.41
2018-04-16T11:46:39.645Z,74.07
2018-04-16T11:49:07.993Z,74.18
2018-04-16T11:51:36.301Z,74.97
2018-04-16T11:54:04.645Z,76.30
2018-04-16T11:56:32.961Z,74.62
2018-04-16T11:59:01.299Z,73.10
2018-04-16T12:01:29.724Z,75.35
2018-04-16T12:03:58.060Z,75.43
2018-04-16T12:06:26.420Z,73.91
2018-04-16T12:08:54.820Z,73.18
2018-04-16T12:11:23.129Z,73.58
2018-04-16T12:13:51.484Z,74.17
2018-04-16T12:16:19.825Z,73.86
2018-04-16T12:18:48.132Z,71.95
2018-04-16T12:21:16.556Z,75.19
2018-04-16T12:23:44.923Z,73.25
2018-04-16T12:26:13.294Z,73.96
2018-04-16T12:28:41.601Z,72.93
2018-04-16T12:31:09.953Z,71.39
2018-04-16T12:33:38.266Z,71.89
2018-04-16T12:36:06.689Z,71.15
2018-04-16T12:38:35.086Z,70.98
2018-04-16T12:41:03.430Z,69.63
2018-04-16T12:43:31.765Z,71.07
2018-04-16T12:46:00.105Z,71.35
2018-04-16T12:48:28.539Z,73.13
2018-04-16T12:50:56.917Z,72.91
2018-04-16T12:53:25.209Z,73.95
2018-04-16T12:55:53.542Z,75.12
2018-04-16T12:58:21.890Z,74.82
2018-04-16T13:00:50.262Z,75.29
2018-04-16T13:03:18.672Z,75.09
2018-04-16T13:05:47.032Z,75.64
2018-04-16T13:08:15.362Z,76.26
2018-04-16T13:10:43.683Z,76.67
2018-04-16T13:13:12.026Z,79.28
2018-04-16T13:15:40.333Z,77.95
2018-04-16T13:18:08.730Z,78.93
2018-04-16T13:20:37.056Z,80.23
2018-04-16T13:23:05.493Z,79.97
2018-04-16T13:25:33.813Z,79.95
2018-04-16T13:28:02.145Z,79.84
2018-04-16T13:30:30.460Z,80.27
2018-04-16T13:32:58.893Z,78.73
2018-04-16T13:35:27.268Z,78.55
2018-04-16T13:37:55.780Z,78.09
2018-04-16T13:40:24.108Z,78.28
2018-04-16T13:42:52.450Z,77.85
2018-04-16T13:45:20.786Z,77.84
2018-04-16T13:47:49.166Z,76.84
2018-04-16T13:50:17.562Z,76.85
2018-04-16T13:52:45.885Z,76.82
2018-04-16T13:55:14.189Z,77.26
2018-04-16T13:57:42.569Z,75.83
2018-04-16T14:00:10.885Z,75.70
2018-04-16T14:02:39.229Z,75.34
2018-04-16T14:05:07.574Z,75.25
2018-04-16T14:07:35.885Z,76.57
2018-04-16T14:10:05.188Z,74.26
2018-04-16T14:12:33.617Z,74.07
2018-04-16T14:15:01.945Z,73.65
2018-04-16T14:17:30.364Z,75.20
2018-04-16T14:19:58.744Z,72.95
2018-04-16T14:22:27.080Z,71.43
2018-04-16T14:24:55.426Z,71.12
2018-04-16T14:27:23.833Z,69.05
2018-04-16T14:29:52.170Z,69.26
2018-04-16T14:32:20.494Z,70.51
2018-04-16T14:34:48.841Z,71.60
2018-04-16T14:37:17.165Z,69.78
2018-04-16T14:39:45.508Z,70.18
2018-04-16T14:42:13.822Z,70.73
2018-04-16T14:44:42.276Z,68.75
2018-04-16T14:47:10.669Z,70.51
2018-04-16T14:49:38.984Z,70.07
2018-04-16T14:52:07.312Z,68.66
2018-04-16T14:54:35.696Z,67.84
2018-04-16T14:57:04.068Z,62.33
2018-04-16T14:59:32.442Z,64.44
2018-04-16T15:02:00.777Z,58.94
2018-04-16T15:04:29.101Z,53.18
2018-04-16T15:06:57.425Z,52.78
2018-04-16T15:09:25.741Z,52.25
2018-04-16T15:11:54.077Z,53.64
2018-04-16T15:14:22.425Z,57.70
2018-04-16T15:16:50.788Z,60.65
2018-04-16T15:19:19.105Z,60.71
2018-04-16T15:21:47.452Z,59.80
2018-04-16T15:24:15.766Z,61.92
2018-04-16T15:26:44.172Z,62.01
2018-04-16T15:29:12.510Z,63.78
2018-04-16T15:31:40.840Z,62.70
2018-04-16T15:34:10.160Z,64.15
2018-04-16T15:36:38.514Z,63.09
2018-04-16T15:39:06.849Z,63.42
2018-04-16T15:41:35.187Z,63.62
2018-04-16T15:44:03.573Z,64.22
2018-04-16T15:46:31.909Z,64.08
2018-04-16T15:49:00.245Z,60.07
2018-04-16T15:51:28.561Z,58.36
2018-04-16T15:53:56.910Z,54.56
2018-04-16T15:56:25.218Z,57.76
2018-04-16T15:58:53.554Z,62.69
2018-04-16T16:01:21.881Z,63.15
2018-04-16T16:03:50.219Z,64.46
2018-04-16T16:06:19.649Z,64.68
2018-04-16T16:08:49.945Z,65.61
2018-04-16T16:11:18.335Z,66.75
2018-04-16T16:13:46.637Z,67.84
2018-04-16T16:16:15.049Z,67.90
2018-04-16T16:18:43.400Z,67.79
2018-04-16T16:21:11.841Z,69.06
2018-04-16T16:23:40.180Z,69.94
2018-04-16T16:26:08.574Z,70.19
2018-04-16T16:28:37.000Z,70.60
2018-04-16T16:31:05.310Z,71.33
2018-04-16T16:33:33.674Z,71.56
2018-04-16T16:36:02.809Z,73.60
2018-04-16T16:38:33.521Z,73.57
2018-04-16T16:41:02.710Z,74.09
2018-04-16T16:43:31.038Z,74.51
2018-04-16T16:45:59.370Z,74.85
2018-04-16T16:48:27.674Z,74.28
2018-04-16T16:50:56.016Z,73.12
2018-04-16T16:53:24.325Z,71.74
2018-04-16T16:55:52.653Z,73.17
2018-04-16T16:58:20.981Z,72.46
2018-04-16T17:00:49.338Z,72.77
2018-04-16T17:03:17.650Z,72.12
2018-04-16T17:05:45.983Z,71.54
2018-04-16T17:08:14.303Z,70.63
2018-04-16T17:10:42.684Z,70.42
2018-04-16T17:13:10.984Z,71.10
2018-04-16T17:15:40.669Z,71.86
2018-04-16T17:18:08.965Z,72.47
2018-04-16T17:20:37.307Z,73.22
2018-04-16T17:23:05.610Z,72.35
2018-04-16T17:25:33.955Z,72.37
2018-04-16T17:28:02.261Z,73.58
2018-04-16T17:30:30.608Z,74.23
2018-04-16T17:32:58.968Z,73.11
2018-04-16T17:35:27.317Z,73.52
2018-04-16T17:37:55.747Z,73.40
2018-04-16T17:40:24.148Z,72.29
2018-04-16T17:42:52.526Z,72.29
2018-04-16T17:45:20.822Z,72.42
2018-04-16T17:47:49.175Z,72.40
2018-04-16T17:50:17.494Z,71.59
2018-04-16T17:52:45.902Z,71.24
2018-04-16T17:55:14.276Z,71.19
2018-04-16T17:57:42.634Z,71.24
2018-04-16T18:00:10.930Z,71.29
2018-04-16T18:02:39.305Z,71.03
2018-04-16T18:05:07.685Z,70.91
2018-04-16T18:07:36.005Z,71.51
2018-04-16T18:10:04.337Z,71.67
2018-04-16T18:12:32.665Z,72.42
2018-04-16T18:15:00.972Z,72.40
2018-04-16T18:17:29.368Z,72.82
2018-04-16T18:19:57.686Z,72.76
2018-04-16T18:22:26.026Z,72.99
2018-04-16T18:24:54.373Z,72.98
2018-04-16T18:27:22.722Z,72.75
2018-04-16T18:29:51.056Z,73.06
2018-04-16T18:32:19.381Z,72.72
2018-04-16T18:34:47.812Z,73.27
2018-04-16T18:37:16.137Z,73.44
2018-04-16T18:39:44.461Z,72.69
2018-04-16T18:42:12.861Z,72.85
2018-04-16T18:44:41.185Z,72.43
2018-04-16T18:47:09.606Z,72.48
2018-04-16T18:49:37.982Z,71.75
2018-04-16T18:52:06.404Z,71.91
2018-04-16T18:54:34.744Z,72.11
2018-04-16T18:57:03.062Z,71.65
2018-04-16T18:59:31.398Z,71.69
2018-04-16T19:01:59.716Z,71.31
2018-04-16T19:04:28.075Z,71.16
2018-04-16T19:06:56.390Z,71.46
2018-04-16T19:09:24.717Z,71.25
2018-04-16T19:11:53.088Z,71.84
2018-04-16T19:14:21.432Z,71.60
2018-04-16T19:16:50.945Z,71.88
2018-04-16T19:19:19.253Z,71.98
2018-04-16T19:21:53.107Z,71.79
2018-04-16T19:24:21.530Z,72.17
2018-04-16T19:26:55.404Z,71.87
2018-04-16T19:29:23.762Z,71.96
2018-04-16T19:31:52.096Z,73.01
2018-04-16T19:34:26.139Z,72.49
2018-04-16T19:36:54.463Z,73.17
2018-04-16T19:39:22.780Z,71.72
2018-04-16T19:41:56.740Z,73.02
2018-04-16T19:44:25.008Z,73.43
2018-04-16T19:46:53.416Z,73.66
2018-04-16T19:49:28.709Z,73.23
2018-04-16T19:51:57.047Z,73.19
2018-04-16T19:54:25.364Z,73.25
2018-04-16T19:56:59.471Z,73.29
2018-04-16T19:59:27.800Z,73.39
2018-04-16T20:02:01.592Z,73.53
2018-04-16T20:04:29.914Z,72.84
2018-04-16T20:06:58.263Z,73.72
2018-04-16T20:09:26.649Z,73.66
2018-04-16T20:11:54.988Z,73.60
2018-04-16T20:14:23.298Z,74.30
2018-04-16T20:16:51.682Z,75.19
2018-04-16T20:19:20.001Z,74.88
2018-04-16T20:21:48.322Z,75.58
2018-04-16T20:24:16.697Z,74.91
2018-04-16T20:26:45.081Z,75.39
2018-04-16T20:29:13.510Z,75.28
2018-04-16T20:31:41.836Z,75.04
2018-04-16T20:34:10.156Z,75.16
2018-04-16T20:36:38.589Z,76.38
2018-04-16T20:39:06.976Z,76.36
2018-04-16T20:41:35.290Z,75.58
2018-04-16T20:44:03.655Z,74.46
2018-04-16T20:46:32.029Z,74.65
2018-04-16T20:49:00.389Z,74.50
2018-04-16T20:51:28.698Z,73.91
2018-04-16T20:53:57.046Z,74.25
2018-04-16T20:56:25.365Z,75.10
2018-04-16T20:58:53.698Z,75.22
2018-04-16T21:01:22.074Z,75.04
2018-04-16T21:03:50.417Z,75.73
2018-04-16T21:06:18.752Z,76.14
2018-04-16T21:08:47.085Z,75.21
2018-04-16T21:11:15.385Z,74.84
2018-04-16T21:13:43.713Z,74.90
2018-04-16T21:16:12.015Z,75.09
2018-04-16T21:18:40.352Z,76.02
2018-04-16T21:21:08.798Z,76.05
2018-04-16T21:23:37.176Z,75.87
2018-04-16T21:26:05.480Z,75.80
2018-04-16T21:28:33.842Z,75.64
2018-04-16T21:31:02.208Z,75.67
2018-04-16T21:33:30.521Z,76.08
2018-04-16T21:35:58.957Z,75.81
2018-04-16T21:38:27.264Z,75.61
2018-04-16T21:40:55.594Z,75.94
2018-04-16T21:43:23.997Z,75.63
2018-04-16T21:45:52.336Z,76.14
2018-04-16T21:48:20.644Z,75.86
2018-04-16T21:50:48.977Z,76.05
2018-04-16T21:53:17.290Z,75.57
2018-04-16T21:55:45.624Z,75.46
2018-04-16T21:58:13.940Z,75.94
2018-04-16T22:00:42.327Z,75.25
2018-04-16T22:03:10.672Z,76.05
2018-04-16T22:05:38.977Z,76.38
2018-04-16T22:08:07.289Z,76.09
2018-04-16T22:10:35.689Z,76.12
2018-04-16T22:13:04.013Z,76.56
2018-04-16T22:15:32.361Z,76.16
2018-04-16T22:18:00.673Z,76.08
2018-04-16T22:20:29.052Z,76.38
2018-04-16T22:22:57.392Z,75.67
2018-04-16T22:25:25.811Z,75.75
2018-04-16T22:27:54.144Z,75.72
2018-04-16T22:30:22.458Z,75.52
2018-04-16T22:32:50.838Z,75.80
2018-04-16T22:35:19.151Z,75.89
2018-04-16T22:37:47.490Z,76.13
2018-04-16T22:40:15.812Z,75.92
2018-04-16T22:42:44.146Z,75.08
2018-04-16T22:45:12.533Z,75.08
2018-04-16T22:47:40.864Z,75.66
2018-04-16T22:50:09.180Z,75.83
2018-04-16T22:52:37.559Z,76.24
2018-04-16T22:55:05.905Z,76.01
2018-04-16T22:57:34.318Z,76.31
2018-04-16T23:00:02.617Z,76.40
2018-04-16T23:02:30.932Z,76.47
2018-04-16T23:04:59.345Z,76.72
2018-04-16T23:07:27.653Z,76.34
2018-04-16T23:09:55.982Z,76.93
2018-04-16T23:12:24.293Z,77.35
2018-04-16T23:14:52.644Z,76.87
2018-04-16T23:17:21.055Z,76.82
2018-04-16T23:19:49.400Z,76.41
2018-04-16T23:22:17.712Z,76.49
2018-04-16T23:24:46.041Z,76.77
2018-04-16T23:27:14.500Z,77.35
2018-04-16T23:29:42.830Z,77.65
2018-04-16T23:32:11.220Z,76.87
2018-04-16T23:34:39.585Z,76.99
2018-04-16T23:37:07.908Z,76.17
2018-04-16T23:39:36.248Z,76.86
2018-04-16T23:42:04.632Z,76.68
2018-04-16T23:44:32.953Z,76.83
2018-04-16T23:47:01.377Z,76.97
2018-04-16T23:49:29.717Z,76.86
2018-04-16T23:51:58.029Z,76.95
2018-04-16T23:54:26.365Z,76.73
2018-04-16T23:56:54.666Z,77.10
2018-04-16T23:59:23.016Z,76.87
